Time;durP1;ratioP1;P1;durP2;ratioP2;P2;SDS_P1;SDS_P2;PMS_P1;PMS_P2;Temp;Humidity;BMP_temperature;BMP_pressure;BME280_temperature;BME280_humidity;BME280_pressure;Samples;Min_cycle;Max_cycle;Signal;HPM_P1;HPM_P2
2023/06/01 00:00:16;;;;;;;16.63;5.35;;;11.80;99.90;;;;;;5015479;28;20121;-74
2023/06/01 00:02:41;;;;;;;13.55;4.85;;;11.80;99.90;;;;;;5014557;28;20045;-74
2023/06/01 00:05:07;;;;;;;12.23;5.47;;;11.80;99.90;;;;;;5015571;28;20501;-74
2023/06/01 00:07:33;;;;;;;13.00;5.00;;;11.80;99.90;;;;;;5015441;28;20045;-74
2023/06/01 00:10:02;;;;;;;13.50;5.47;;;11.80;99.90;;;;;;5013950;28;20388;-74
2023/06/01 00:12:28;;;;;;;16.80;6.65;;;11.80;99.90;;;;;;5014141;28;20042;-74
2023/06/01 00:14:53;;;;;;;14.65;4.97;;;11.90;99.90;;;;;;5015113;28;20034;-74
2023/06/01 00:17:19;;;;;;;11.43;5.20;;;11.80;99.90;;;;;;5015449;28;20038;-74
2023/06/01 00:19:47;;;;;;;12.82;5.40;;;11.90;99.90;;;;;;5013974;28;20041;-74
2023/06/01 00:22:13;;;;;;;12.23;4.85;;;11.70;99.90;;;;;;5015267;28;20046;-74
2023/06/01 00:24:38;;;;;;;10.25;4.45;;;11.70;99.90;;;;;;5015105;28;20037;-73
2023/06/01 00:27:05;;;;;;;9.60;4.68;;;11.70;99.90;;;;;;4997355;28;20049;-74
2023/06/01 00:29:30;;;;;;;11.27;4.28;;;11.70;99.90;;;;;;5014832;28;20502;-74
2023/06/01 00:31:56;;;;;;;12.10;5.43;;;11.70;99.90;;;;;;5015253;28;20038;-74
2023/06/01 00:34:22;;;;;;;12.30;5.43;;;11.70;99.90;;;;;;5014957;28;20045;-73
2023/06/01 00:36:47;;;;;;;9.85;4.60;;;11.60;99.90;;;;;;5014947;28;20451;-74
2023/06/01 00:39:13;;;;;;;8.30;4.20;;;11.70;99.90;;;;;;5014851;28;20042;-74
2023/06/01 00:41:38;;;;;;;12.98;5.07;;;11.70;99.90;;;;;;5014907;28;20042;-74
2023/06/01 00:44:04;;;;;;;12.05;4.35;;;11.70;99.90;;;;;;5013459;28;20041;-74
2023/06/01 00:46:30;;;;;;;12.10;5.40;;;11.70;99.90;;;;;;5014844;28;20520;-74
2023/06/01 00:48:57;;;;;;;14.30;5.80;;;11.70;99.90;;;;;;5014617;28;20056;-74
2023/06/01 00:51:23;;;;;;;11.35;4.40;;;11.70;99.90;;;;;;5014657;28;20387;-74
2023/06/01 00:53:49;;;;;;;9.65;4.90;;;11.70;99.90;;;;;;5014563;28;20080;-74
2023/06/01 00:56:16;;;;;;;11.68;4.85;;;11.70;99.90;;;;;;5014394;28;20038;-74
2023/06/01 00:58:42;;;;;;;11.40;4.68;;;11.60;99.90;;;;;;5014576;28;20065;-74
2023/06/01 01:01:07;;;;;;;12.85;5.10;;;11.70;99.90;;;;;;5013409;28;20038;-74
2023/06/01 01:03:34;;;;;;;10.68;4.88;;;11.70;99.90;;;;;;5012646;28;20042;-74
2023/06/01 01:06:39;;;;;;;8.82;4.60;;;11.70;99.90;;;;;;5013165;28;20044;-74
2023/06/01 01:09:28;;;;;;;10.63;4.40;;;11.80;99.90;;;;;;5014275;28;20077;-74
2023/06/01 01:12:26;;;;;;;12.23;4.88;;;11.80;99.90;;;;;;5014467;28;20048;-74
2023/06/01 01:14:52;;;;;;;14.20;6.03;;;11.80;99.90;;;;;;5012372;28;20125;-74
2023/06/01 01:17:44;;;;;;;11.20;5.20;;;11.70;99.90;;;;;;5012982;28;20520;-74
2023/06/01 01:20:15;;;;;;;14.30;5.10;;;11.70;99.90;;;;;;5014199;28;20038;-74
2023/06/01 01:23:24;;;;;;;12.57;5.03;;;11.70;99.90;;;;;;4996815;28;20037;-74
2023/06/01 01:26:28;;;;;;;18.35;6.28;;;11.60;99.90;;;;;;4972564;28;20050;-74
2023/06/01 01:29:11;;;;;;;11.55;5.25;;;11.60;99.90;;;;;;5002671;28;20054;-74
2023/06/01 01:31:38;;;;;;;15.50;5.60;;;11.60;99.90;;;;;;5014013;28;20041;-74
2023/06/01 01:34:05;;;;;;;14.82;6.15;;;11.60;99.90;;;;;;5013597;28;20077;-74
2023/06/01 01:36:31;;;;;;;13.10;5.20;;;11.70;99.90;;;;;;5013749;28;20409;-74
2023/06/01 01:38:57;;;;;;;10.43;5.38;;;11.70;99.90;;;;;;5013639;28;20616;-75
2023/06/01 01:41:23;;;;;;;14.52;5.15;;;11.70;99.90;;;;;;5013860;28;20117;-74
2023/06/01 01:43:49;;;;;;;12.93;4.95;;;11.70;99.90;;;;;;5013660;28;20493;-74
2023/06/01 01:46:26;;;;;;;14.25;5.75;;;11.60;99.90;;;;;;5012320;28;20096;-74
2023/06/01 01:48:57;;;;;;;16.55;6.18;;;11.70;99.90;;;;;;5012196;28;20044;-74
2023/06/01 01:51:35;;;;;;;12.43;5.45;;;11.60;99.90;;;;;;5013588;28;20666;-74
2023/06/01 01:54:04;;;;;;;11.50;5.43;;;11.60;99.90;;;;;;5012347;28;20034;-74
2023/06/01 01:56:31;;;;;;;11.15;5.60;;;11.60;99.90;;;;;;5013236;28;20040;-74
2023/06/01 01:58:56;;;;;;;8.15;5.07;;;11.60;99.90;;;;;;5013194;28;20100;-74
2023/06/01 02:01:23;;;;;;;12.25;6.05;;;11.70;99.90;;;;;;5010565;28;20383;-72
2023/06/01 02:04:01;;;;;;;11.88;5.22;;;11.70;99.90;;;;;;5011875;28;20559;-72
2023/06/01 02:06:27;;;;;;;12.57;5.43;;;11.70;99.90;;;;;;5011972;28;20056;-72
2023/06/01 02:08:52;;;;;;;14.43;5.20;;;11.60;99.90;;;;;;5012969;28;20478;-72
2023/06/01 02:11:18;;;;;;;10.13;5.00;;;11.60;99.90;;;;;;5012133;28;20038;-72
2023/06/01 02:13:43;;;;;;;10.77;4.90;;;11.60;99.90;;;;;;5012944;28;20405;-72
2023/06/01 02:16:09;;;;;;;16.13;5.10;;;11.60;99.90;;;;;;5010624;28;20088;-72
2023/06/01 02:18:39;;;;;;;10.93;4.97;;;11.50;99.90;;;;;;5012872;28;20117;-72
2023/06/01 02:21:08;;;;;;;17.52;5.85;;;11.60;99.90;;;;;;5013050;28;20057;-72
2023/06/01 02:23:34;;;;;;;11.77;5.15;;;11.60;99.90;;;;;;5011928;28;20053;-72
2023/06/01 02:26:00;;;;;;;13.00;5.90;;;11.70;99.90;;;;;;5011323;28;20073;-71
2023/06/01 02:28:26;;;;;;;13.65;5.85;;;11.60;99.90;;;;;;5011790;28;20469;-72
2023/06/01 02:30:51;;;;;;;11.43;5.32;;;11.70;99.90;;;;;;5012927;28;20093;-73
2023/06/01 02:33:17;;;;;;;15.57;5.55;;;11.70;99.90;;;;;;5011749;28;20048;-72
2023/06/01 02:35:42;;;;;;;9.80;5.13;;;11.70;99.90;;;;;;5011432;28;20156;-71
2023/06/01 02:38:08;;;;;;;9.93;4.65;;;11.60;99.90;;;;;;5012498;28;20038;-71
2023/06/01 02:40:33;;;;;;;8.68;4.15;;;11.60;99.90;;;;;;4995260;28;20485;-71
2023/06/01 02:42:59;;;;;;;9.68;3.95;;;11.50;99.90;;;;;;5012786;28;20076;-72
2023/06/01 02:45:25;;;;;;;8.88;3.60;;;11.40;99.90;;;;;;5011426;28;20413;-71
2023/06/01 02:47:50;;;;;;;9.05;3.75;;;11.40;99.90;;;;;;5011266;28;20486;-70
2023/06/01 02:50:16;;;;;;;7.15;3.53;;;11.40;99.90;;;;;;5011193;28;20050;-71
2023/06/01 02:52:42;;;;;;;8.35;4.00;;;11.40;99.90;;;;;;5011170;28;20063;-71
2023/06/01 02:55:08;;;;;;;7.63;3.40;;;11.40;99.90;;;;;;5012284;28;20056;-71
2023/06/01 02:57:33;;;;;;;7.13;3.35;;;11.40;99.90;;;;;;5010913;28;20045;-73
2023/06/01 02:59:59;;;;;;;10.25;3.78;;;11.40;99.90;;;;;;5010684;28;20440;-73
2023/06/01 03:02:26;;;;;;;8.02;3.75;;;11.50;99.90;;;;;;5010982;28;20054;-73
2023/06/01 03:04:52;;;;;;;7.22;3.60;;;11.50;99.90;;;;;;5012155;28;20049;-73
2023/06/01 03:07:18;;;;;;;8.57;3.85;;;11.50;99.90;;;;;;5011008;28;20121;-73
2023/06/01 03:09:43;;;;;;;8.68;2.97;;;11.40;99.90;;;;;;5010728;28;20038;-73
2023/06/01 03:12:10;;;;;;;5.55;3.53;;;11.50;99.90;;;;;;5012408;28;20034;-73
2023/06/01 03:14:35;;;;;;;8.65;3.75;;;11.50;99.90;;;;;;5010893;28;20038;-73
2023/06/01 03:17:01;;;;;;;8.90;3.60;;;11.50;99.90;;;;;;5012213;28;20498;-73
2023/06/01 03:19:27;;;;;;;9.65;3.47;;;11.50;99.90;;;;;;5012130;28;20458;-73
2023/06/01 03:21:52;;;;;;;5.97;3.42;;;11.50;99.90;;;;;;5012053;28;20537;-73
2023/06/01 03:24:18;;;;;;;6.88;3.53;;;11.50;99.90;;;;;;5010845;28;20133;-73
2023/06/01 03:26:44;;;;;;;9.85;3.70;;;11.50;99.90;;;;;;5011728;28;20042;-73
2023/06/01 03:29:09;;;;;;;8.88;4.18;;;11.50;99.90;;;;;;5011878;28;20516;-72
2023/06/01 03:31:35;;;;;;;10.82;3.95;;;11.40;99.90;;;;;;5011792;28;20033;-73
2023/06/01 03:34:01;;;;;;;7.75;4.82;;;11.50;99.90;;;;;;4994179;28;20033;-72
2023/06/01 03:36:27;;;;;;;22.17;4.20;;;11.50;99.90;;;;;;5011801;28;20042;-73
2023/06/01 03:38:53;;;;;;;10.70;3.05;;;11.50;99.90;;;;;;5010404;28;20060;-72
2023/06/01 03:41:19;;;;;;;7.43;4.03;;;11.50;99.90;;;;;;5012040;28;20036;-73
2023/06/01 03:43:45;;;;;;;7.95;3.65;;;11.50;99.90;;;;;;5010686;28;20042;-72
2023/06/01 03:46:11;;;;;;;7.78;3.97;;;11.50;99.90;;;;;;4994383;28;20088;-73
2023/06/01 03:48:36;;;;;;;11.48;4.15;;;11.60;99.90;;;;;;5010432;28;20046;-73
2023/06/01 03:51:02;;;;;;;10.43;3.85;;;11.60;99.90;;;;;;5011719;28;20488;-73
2023/06/01 03:53:28;;;;;;;11.63;4.32;;;11.60;99.90;;;;;;5011646;28;20512;-73
2023/06/01 03:55:54;;;;;;;11.60;4.70;;;11.70;99.90;;;;;;5011698;28;20074;-73
2023/06/01 03:58:20;;;;;;;9.52;4.88;;;11.70;99.90;;;;;;5011330;28;20379;-73
2023/06/01 04:00:46;;;;;;;12.73;5.07;;;11.60;99.90;;;;;;5010368;28;20053;-72
2023/06/01 04:03:13;;;;;;;14.00;5.40;;;11.60;99.90;;;;;;5010263;28;20041;-73
2023/06/01 04:05:38;;;;;;;11.13;4.28;;;11.60;99.90;;;;;;5011311;28;20494;-72
2023/06/01 04:08:04;;;;;;;11.25;4.30;;;11.70;99.90;;;;;;5010916;28;20049;-72
2023/06/01 04:10:30;;;;;;;11.30;5.68;;;11.70;99.90;;;;;;5010168;28;20049;-72
2023/06/01 04:12:55;;;;;;;10.88;4.70;;;11.70;99.90;;;;;;5010180;28;20041;-72
2023/06/01 04:15:22;;;;;;;10.27;4.32;;;11.60;99.90;;;;;;5011430;28;20033;-73
2023/06/01 04:17:48;;;;;;;12.48;4.43;;;11.60;99.90;;;;;;5010262;28;20644;-72
2023/06/01 04:20:16;;;;;;;10.38;4.15;;;11.50;99.90;;;;;;5010168;28;20140;-74
2023/06/01 04:22:43;;;;;;;10.80;4.55;;;11.60;99.90;;;;;;5010146;28;20486;-72
2023/06/01 04:25:16;;;;;;;15.80;5.72;;;11.70;99.90;;;;;;5010112;28;20049;-72
2023/06/01 04:27:48;;;;;;;10.15;4.03;;;11.70;99.90;;;;;;5010097;28;20042;-72
2023/06/01 04:30:15;;;;;;;9.57;4.78;;;11.60;99.90;;;;;;5011275;28;20049;-72
2023/06/01 04:32:41;;;;;;;17.05;4.70;;;11.60;99.90;;;;;;5011457;28;20383;-72
2023/06/01 04:35:07;;;;;;;9.68;3.92;;;11.50;99.90;;;;;;5009938;28;20030;-74
2023/06/01 04:37:35;;;;;;;9.38;4.78;;;11.70;99.90;;;;;;5010227;28;20112;-73
2023/06/01 04:40:06;;;;;;;9.02;4.00;;;11.60;99.90;;;;;;5013518;28;20045;-72
2023/06/01 04:42:31;;;;;;;12.88;4.15;;;11.60;99.90;;;;;;4997474;28;20046;-73
2023/06/01 04:44:58;;;;;;;7.82;4.47;;;11.60;99.90;;;;;;5014739;28;20049;-72
2023/06/01 04:47:23;;;;;;;8.95;4.05;;;11.60;99.90;;;;;;5013333;28;20042;-73
2023/06/01 04:49:49;;;;;;;12.30;4.05;;;11.60;99.90;;;;;;5013144;28;20092;-73
2023/06/01 04:52:14;;;;;;;12.00;5.28;;;11.60;99.90;;;;;;5014756;28;20044;-73
2023/06/01 04:54:40;;;;;;;12.57;4.90;;;11.70;99.90;;;;;;5013339;28;20129;-73
2023/06/01 04:57:06;;;;;;;9.48;5.03;;;11.60;99.90;;;;;;5013209;28;20456;-72
2023/06/01 04:59:32;;;;;;;15.18;4.60;;;11.60;99.90;;;;;;5014409;28;20057;-73
2023/06/01 05:01:59;;;;;;;9.60;4.45;;;11.60;99.90;;;;;;5014568;28;20049;-73
2023/06/01 05:04:24;;;;;;;15.30;5.38;;;11.60;99.90;;;;;;5014307;28;20060;-73
2023/06/01 05:06:50;;;;;;;10.55;5.15;;;11.60;99.90;;;;;;5014290;28;20037;-72
2023/06/01 05:09:18;;;;;;;9.52;4.50;;;11.60;99.90;;;;;;5014290;28;20052;-73
2023/06/01 05:11:43;;;;;;;11.90;5.20;;;11.70;99.90;;;;;;4996644;28;20054;-73
2023/06/01 05:14:09;;;;;;;13.48;4.88;;;11.60;99.90;;;;;;5013677;28;20129;-72
2023/06/01 05:16:35;;;;;;;9.68;4.95;;;11.60;99.90;;;;;;5069795;23;20041;-76
2023/06/01 05:19:01;;;;;;;11.02;4.75;;;11.70;99.90;;;;;;5051883;28;20500;-76
2023/06/01 05:21:26;;;;;;;12.20;5.07;;;11.80;99.90;;;;;;5053898;28;20044;-76
2023/06/01 05:23:52;;;;;;;10.68;4.10;;;11.70;99.90;;;;;;5052634;28;20079;-76
2023/06/01 05:26:17;;;;;;;9.23;4.50;;;11.80;99.90;;;;;;5068571;28;20051;-76
2023/06/01 05:28:43;;;;;;;6.32;4.13;;;11.80;99.90;;;;;;5055401;28;20115;-76
2023/06/01 05:31:09;;;;;;;6.03;3.30;;;11.80;99.90;;;;;;5073512;28;20040;-76
2023/06/01 05:33:36;;;;;;;9.50;4.35;;;11.90;99.90;;;;;;5073544;28;20496;-76
2023/06/01 05:36:02;;;;;;;10.43;4.70;;;11.70;99.90;;;;;;5072568;28;20512;-76
2023/06/01 05:38:28;;;;;;;11.25;4.10;;;11.70;99.90;;;;;;5072174;28;20084;-76
2023/06/01 05:40:53;;;;;;;9.25;3.67;;;11.80;99.90;;;;;;5072130;28;20036;-76
2023/06/01 05:43:19;;;;;;;11.35;4.38;;;11.80;99.90;;;;;;5073558;28;20102;-76
2023/06/01 05:45:44;;;;;;;8.70;3.65;;;11.80;99.90;;;;;;5072274;28;20496;-77
2023/06/01 05:48:13;;;;;;;7.43;3.28;;;11.90;99.90;;;;;;5073140;28;20044;-77
2023/06/01 05:50:40;;;;;;;7.38;3.97;;;11.80;99.90;;;;;;5073259;28;20036;-78
2023/06/01 05:53:05;;;;;;;7.05;2.95;;;11.80;99.90;;;;;;5055497;28;20500;-78
2023/06/01 05:55:31;;;;;;;9.07;3.28;;;11.80;99.90;;;;;;5073232;28;20047;-78
2023/06/01 05:57:56;;;;;;;4.30;2.58;;;11.90;99.90;;;;;;5071591;28;20457;-78
2023/06/01 06:00:23;;;;;;;7.20;2.90;;;11.80;99.90;;;;;;5072059;28;20037;-78
2023/06/01 06:02:49;;;;;;;13.77;3.30;;;11.80;99.90;;;;;;5073172;28;20134;-77
2023/06/01 06:05:14;;;;;;;4.57;2.65;;;11.80;99.90;;;;;;5055482;28;20092;-78
2023/06/01 06:07:40;;;;;;;7.80;2.75;;;11.80;99.90;;;;;;5072976;28;20051;-78
2023/06/01 06:10:06;;;;;;;4.90;2.13;;;11.80;99.90;;;;;;5071619;28;20043;-78
2023/06/01 06:12:32;;;;;;;5.80;2.65;;;11.70;99.90;;;;;;5071656;28;20036;-79
2023/06/01 06:14:57;;;;;;;5.35;2.92;;;11.80;99.90;;;;;;5071061;28;20070;-78
2023/06/01 06:17:23;;;;;;;8.63;3.10;;;11.80;99.90;;;;;;5071450;28;20036;-78
2023/06/01 06:19:49;;;;;;;9.20;4.65;;;11.80;99.90;;;;;;5054817;28;20412;-78
2023/06/01 06:22:15;;;;;;;5.47;2.40;;;11.90;99.90;;;;;;5054978;28;20052;-75
2023/06/01 06:24:41;;;;;;;4.70;3.17;;;11.90;99.90;;;;;;5072462;28;20085;-76
2023/06/01 06:27:08;;;;;;;6.90;2.75;;;12.00;99.90;;;;;;5054451;28;20052;-76
2023/06/01 06:29:33;;;;;;;6.35;3.03;;;11.90;99.90;;;;;;5072113;28;20037;-76
2023/06/01 06:31:59;;;;;;;5.75;2.95;;;12.00;99.90;;;;;;5071126;28;20033;-76
2023/06/01 06:34:25;;;;;;;5.63;2.63;;;11.90;99.90;;;;;;5071231;28;20131;-75
2023/06/01 06:36:52;;;;;;;6.95;2.67;;;12.10;99.90;;;;;;5054567;28;20040;-75
2023/06/01 06:39:18;;;;;;;7.80;2.42;;;12.00;99.90;;;;;;5054131;28;20044;-74
2023/06/01 06:41:44;;;;;;;4.68;1.88;;;12.00;99.90;;;;;;5071026;28;20041;-75
2023/06/01 06:44:09;;;;;;;4.03;2.15;;;12.00;99.90;;;;;;5062797;28;20041;-75
2023/06/01 06:46:35;;;;;;;4.22;1.60;;;12.00;99.90;;;;;;5070680;28;20048;-75
2023/06/01 06:49:00;;;;;;;3.17;1.30;;;12.00;99.90;;;;;;5072059;28;20102;-75
2023/06/01 06:51:26;;;;;;;4.45;1.80;;;12.00;99.90;;;;;;5070885;28;20040;-75
2023/06/01 06:53:52;;;;;;;3.35;1.45;;;12.10;99.90;;;;;;5054051;28;20119;-77
2023/06/01 06:56:17;;;;;;;4.07;1.70;;;12.00;99.90;;;;;;5053879;28;20032;-76
2023/06/01 06:58:45;;;;;;;5.28;1.60;;;12.00;99.90;;;;;;5055149;28;20086;-76
2023/06/01 07:01:10;;;;;;;4.07;1.35;;;11.90;99.90;;;;;;5071993;28;20044;-76
2023/06/01 07:03:38;;;;;;;5.22;1.52;;;12.00;99.90;;;;;;5071992;28;20040;-77
2023/06/01 07:06:04;;;;;;;4.78;1.73;;;12.10;99.90;;;;;;5070630;28;20044;-78
2023/06/01 07:08:34;;;;;;;3.97;1.80;;;12.10;99.90;;;;;;5053840;28;20044;-77
2023/06/01 07:11:00;;;;;;;4.45;1.90;;;12.20;99.90;;;;;;5071785;28;20040;-77
2023/06/01 07:13:25;;;;;;;3.20;1.60;;;12.20;99.90;;;;;;5070365;28;20072;-78
2023/06/01 07:15:53;;;;;;;6.18;1.80;;;12.20;99.90;;;;;;5070273;28;20067;-78
2023/06/01 07:18:18;;;;;;;4.03;2.05;;;12.20;99.90;;;;;;5071671;28;20497;-78
2023/06/01 07:20:44;;;;;;;3.53;1.90;;;12.30;99.90;;;;;;5064330;28;20205;-78
2023/06/01 07:23:12;;;;;;;6.47;3.22;;;12.20;99.90;;;;;;5058966;28;20146;-78
2023/06/01 07:25:38;;;;;;;4.05;2.03;;;12.10;99.90;;;;;;5061215;28;20575;-78
2023/06/01 07:28:07;;;;;;;4.55;2.22;;;12.30;99.90;;;;;;5059659;28;20040;-78
2023/06/01 07:30:33;;;;;;;6.85;2.00;;;12.20;99.90;;;;;;5051317;28;20044;-79
2023/06/01 07:32:59;;;;;;;5.88;2.30;;;12.10;99.90;;;;;;5055657;28;20665;-79
2023/06/01 07:35:25;;;;;;;4.80;2.25;;;12.10;99.90;;;;;;5054854;28;20044;-79
2023/06/01 07:37:50;;;;;;;6.13;2.17;;;12.00;99.90;;;;;;5072598;28;20033;-79
2023/06/01 07:40:16;;;;;;;4.60;2.22;;;12.10;99.90;;;;;;5072986;28;20036;-79
2023/06/01 07:42:42;;;;;;;7.40;2.78;;;12.20;99.90;;;;;;5073004;28;20077;-79
2023/06/01 07:45:08;;;;;;;5.63;2.17;;;12.20;99.90;;;;;;5077387;28;20040;-79
2023/06/01 07:47:34;;;;;;;8.68;2.17;;;12.10;99.90;;;;;;5059961;28;20492;-79
2023/06/01 07:50:00;;;;;;;3.63;2.25;;;12.10;99.90;;;;;;5075898;28;20044;-79
2023/06/01 07:52:26;;;;;;;5.97;2.40;;;12.10;99.90;;;;;;5057782;28;20576;-79
2023/06/01 07:54:52;;;;;;;10.38;3.80;;;12.10;99.90;;;;;;5071970;28;20101;-79
2023/06/01 07:57:17;;;;;;;4.93;2.35;;;12.10;99.90;;;;;;5065771;28;20523;-79
2023/06/01 07:59:43;;;;;;;5.03;2.80;;;12.10;99.90;;;;;;5072668;28;20205;-79
2023/06/01 08:02:10;;;;;;;9.23;3.72;;;12.10;99.90;;;;;;5057894;28;20048;-79
2023/06/01 08:04:38;;;;;;;8.70;3.03;;;12.00;99.90;;;;;;5056983;28;20071;-78
2023/06/01 08:07:06;;;;;;;5.80;2.47;;;12.10;99.90;;;;;;5070931;28;20041;-77
2023/06/01 08:09:31;;;;;;;12.52;3.70;;;12.20;99.90;;;;;;5062942;28;20106;-77
2023/06/01 08:11:57;;;;;;;6.60;2.85;;;12.20;99.90;;;;;;5066242;28;20037;-77
2023/06/01 08:14:23;;;;;;;8.10;3.10;;;12.10;99.90;;;;;;5072789;28;20112;-78
2023/06/01 08:16:51;;;;;;;6.80;3.10;;;12.20;99.90;;;;;;5073498;28;20033;-78
2023/06/01 08:19:17;;;;;;;10.20;2.58;;;12.20;99.90;;;;;;5075026;28;20123;-77
2023/06/01 08:21:43;;;;;;;19.05;6.20;;;12.20;99.90;;;;;;5073585;28;20037;-78
2023/06/01 08:24:08;;;;;;;7.07;3.10;;;12.20;99.90;;;;;;5054081;28;20086;-77
2023/06/01 08:26:35;;;;;;;4.40;2.40;;;12.10;99.90;;;;;;5073973;28;20029;-78
2023/06/01 08:29:00;;;;;;;8.20;2.42;;;12.00;99.90;;;;;;5057876;28;20040;-76
2023/06/01 08:31:26;;;;;;;6.28;2.90;;;12.00;99.90;;;;;;5074227;28;20039;-77
2023/06/01 08:33:52;;;;;;;6.55;2.80;;;12.10;99.90;;;;;;5075282;28;20033;-79
2023/06/01 08:36:19;;;;;;;22.20;3.60;;;12.10;99.90;;;;;;5073721;28;20058;-78
2023/06/01 08:38:45;;;;;;;4.35;2.28;;;12.10;99.90;;;;;;5073114;28;20037;-78
2023/06/01 08:41:20;;;;;;;9.52;2.95;;;12.00;99.90;;;;;;5073826;28;20463;-79
2023/06/01 08:43:55;;;;;;;4.45;2.88;;;12.20;99.90;;;;;;5071882;28;20097;-78
2023/06/01 08:46:22;;;;;;;7.25;3.13;;;12.30;99.90;;;;;;5063872;28;20036;-76
2023/06/01 08:48:52;;;;;;;7.00;2.65;;;12.30;99.90;;;;;;5051918;28;20044;-76
2023/06/01 08:51:18;;;;;;;7.30;2.53;;;12.40;99.90;;;;;;5056423;28;20495;-76
2023/06/01 08:53:46;;;;;;;7.30;2.80;;;12.40;99.90;;;;;;5056733;28;20109;-75
2023/06/01 08:56:12;;;;;;;7.03;2.60;;;12.50;99.90;;;;;;5072468;28;20041;-76
2023/06/01 08:58:41;;;;;;;7.40;3.85;;;12.40;99.90;;;;;;5073080;28;20518;-75
2023/06/01 09:01:06;;;;;;;48.08;27.98;;;12.50;99.90;;;;;;5074086;28;20041;-75
2023/06/01 09:03:32;;;;;;;103.18;69.18;;;12.40;99.90;;;;;;5072329;28;20036;-74
2023/06/01 09:05:57;;;;;;;27.42;18.95;;;12.40;99.90;;;;;;5072219;28;20043;-74
2023/06/01 09:08:24;;;;;;;20.50;11.20;;;12.40;99.90;;;;;;5072085;28;20047;-75
2023/06/01 09:10:50;;;;;;;17.15;8.98;;;12.40;99.90;;;;;;5069354;28;20079;-77
2023/06/01 09:13:34;;;;;;;15.55;9.50;;;12.30;99.90;;;;;;5052974;28;20069;-77
2023/06/01 09:16:00;;;;;;;8.95;3.75;;;12.40;99.90;;;;;;5052229;28;20087;-74
2023/06/01 09:18:26;;;;;;;12.05;3.30;;;12.60;99.90;;;;;;5035726;28;20072;-74
2023/06/01 09:20:53;;;;;;;8.30;3.08;;;12.50;99.90;;;;;;5052429;28;20062;-75
2023/06/01 09:23:28;;;;;;;11.88;4.00;;;12.60;99.90;;;;;;5052424;28;20048;-75
2023/06/01 09:26:11;;;;;;;8.32;3.28;;;12.60;99.90;;;;;;5051943;28;20500;-76
2023/06/01 09:28:54;;;;;;;9.63;3.55;;;12.70;99.90;;;;;;5061479;28;21511;-76
2023/06/01 09:31:35;;;;;;;9.50;3.00;;;12.40;99.90;;;;;;5069095;28;20036;-75
2023/06/01 09:34:01;;;;;;;10.95;3.60;;;12.40;99.90;;;;;;5056158;28;20044;-78
2023/06/01 09:36:27;;;;;;;9.90;3.38;;;12.60;99.90;;;;;;5072139;28;20079;-78
2023/06/01 09:39:03;;;;;;;7.93;3.00;;;12.90;99.90;;;;;;5073457;28;20472;-78
2023/06/01 09:41:49;;;;;;;10.25;3.45;;;12.80;99.90;;;;;;5055675;28;20075;-78
2023/06/01 09:44:26;;;;;;;9.00;2.88;;;12.60;99.90;;;;;;5073629;28;20037;-76
2023/06/01 09:47:13;;;;;;;11.07;3.15;;;12.70;99.90;;;;;;5072071;28;20033;-78
2023/06/01 09:49:44;;;;;;;13.27;3.80;;;12.70;99.90;;;;;;5070822;28;20543;-77
2023/06/01 09:52:14;;;;;;;8.95;2.83;;;12.80;99.90;;;;;;5072900;28;20032;-77
2023/06/01 09:54:45;;;;;;;8.75;4.40;;;13.00;99.90;;;;;;5073448;28;20078;-77
2023/06/01 09:57:12;;;;;;;10.80;3.08;;;12.90;99.90;;;;;;5071988;28;20040;-77
2023/06/01 09:59:42;;;;;;;11.07;4.47;;;12.90;99.90;;;;;;5071924;28;20619;-77
2023/06/01 10:02:13;;;;;;;9.63;4.40;;;12.90;99.90;;;;;;5071778;28;20044;-77
2023/06/01 10:04:41;;;;;;;5.85;3.10;;;12.80;99.90;;;;;;5071730;28;20032;-77
2023/06/01 10:07:07;;;;;;;9.13;4.43;;;13.00;99.90;;;;;;5071742;28;20043;-76
2023/06/01 10:09:38;;;;;;;9.43;3.22;;;12.70;99.90;;;;;;5055028;28;20047;-73
2023/06/01 10:12:04;;;;;;;10.85;3.60;;;12.80;99.90;;;;;;5072830;28;20511;-75
2023/06/01 10:14:31;;;;;;;10.65;3.40;;;13.00;99.90;;;;;;5071196;28;20078;-73
2023/06/01 10:16:57;;;;;;;8.73;3.20;;;13.20;99.90;;;;;;5054721;28;20055;-74
2023/06/01 10:19:23;;;;;;;8.73;3.90;;;13.30;99.90;;;;;;5071407;28;20044;-73
2023/06/01 10:21:49;;;;;;;13.75;3.35;;;13.10;99.90;;;;;;5071573;28;20373;-74
2023/06/01 10:24:17;;;;;;;11.50;4.03;;;13.20;99.90;;;;;;5071298;28;20048;-74
2023/06/01 10:27:11;;;;;;;7.82;3.47;;;13.10;99.90;;;;;;5071222;28;20088;-74
2023/06/01 10:29:38;;;;;;;7.28;3.30;;;13.10;99.90;;;;;;5071384;28;20123;-78
2023/06/01 10:32:25;;;;;;;10.52;3.25;;;13.20;99.90;;;;;;5071670;28;20072;-78
2023/06/01 10:34:51;;;;;;;9.65;3.15;;;13.20;99.90;;;;;;5072315;28;20044;-78
2023/06/01 10:37:17;;;;;;;12.40;3.03;;;13.30;99.90;;;;;;5070476;28;20107;-77
2023/06/01 10:39:43;;;;;;;5.53;2.55;;;13.40;99.90;;;;;;5050682;28;20389;-77
2023/06/01 10:42:12;;;;;;;9.02;3.80;;;13.50;99.90;;;;;;5043281;28;20033;-76
2023/06/01 10:44:38;;;;;;;11.10;2.88;;;13.60;99.90;;;;;;5043340;28;20147;-76
2023/06/01 10:47:26;;;;;;;8.27;3.45;;;13.60;99.90;;;;;;5061418;28;20551;-77
2023/06/01 10:49:52;;;;;;;10.60;3.88;;;13.80;99.90;;;;;;5050534;28;20136;-75
2023/06/01 10:52:35;;;;;;;11.48;3.55;;;13.80;99.90;;;;;;5058821;28;20131;-75
2023/06/01 10:55:10;;;;;;;10.70;4.53;;;13.80;99.90;;;;;;5054248;28;20098;-75
2023/06/01 10:57:40;;;;;;;8.35;3.67;;;13.90;99.90;;;;;;5053955;28;20615;-74
2023/06/01 11:00:12;;;;;;;11.65;3.05;;;13.80;99.90;;;;;;5053880;28;20047;-74
2023/06/01 11:03:02;;;;;;;10.02;4.15;;;13.70;99.90;;;;;;5070536;28;20049;-73
2023/06/01 11:05:40;;;;;;;7.50;3.05;;;13.70;99.90;;;;;;5071294;28;20056;-74
2023/06/01 11:08:21;;;;;;;16.77;3.83;;;13.70;99.90;;;;;;5070681;28;20406;-74
2023/06/01 11:10:53;;;;;;;6.50;2.58;;;13.70;99.90;;;;;;5070299;28;20041;-74
2023/06/01 11:13:19;;;;;;;8.18;3.25;;;13.80;99.90;;;;;;5053885;28;20069;-73
2023/06/01 11:16:03;;;;;;;7.88;3.17;;;13.90;99.90;;;;;;5061457;22;20123;-71
2023/06/01 11:18:46;;;;;;;10.50;3.00;;;13.90;99.90;;;;;;5011452;28;20181;-70
2023/06/01 11:21:21;;;;;;;12.07;4.25;;;14.00;99.90;;;;;;5010608;28;20128;-71
2023/06/01 11:23:51;;;;;;;10.18;3.50;;;14.00;99.90;;;;;;5010841;28;20049;-72
2023/06/01 11:26:19;;;;;;;7.90;3.13;;;13.90;99.90;;;;;;5010515;28;20045;-71
2023/06/01 11:28:46;;;;;;;9.43;2.97;;;13.90;99.90;;;;;;5010457;28;20042;-71
2023/06/01 11:31:13;;;;;;;11.13;3.60;;;13.80;99.90;;;;;;5010570;28;20046;-71
2023/06/01 11:33:40;;;;;;;9.07;2.97;;;13.80;99.90;;;;;;5010563;28;20418;-72
2023/06/01 11:36:10;;;;;;;7.93;3.00;;;13.70;99.90;;;;;;5011973;28;20121;-72
2023/06/01 11:38:40;;;;;;;9.32;2.90;;;13.80;99.90;;;;;;5011892;28;20233;-72
2023/06/01 11:41:07;;;;;;;10.38;3.10;;;13.80;99.90;;;;;;5011894;28;20049;-72
2023/06/01 11:43:33;;;;;;;6.55;3.00;;;13.80;99.90;;;;;;5011877;28;20049;-73
2023/06/01 11:46:04;;;;;;;6.60;2.30;;;13.60;99.90;;;;;;5011680;28;20060;-72
2023/06/01 11:48:30;;;;;;;10.73;2.63;;;13.60;99.90;;;;;;5013369;28;20038;-72
2023/06/01 11:50:56;;;;;;;8.40;2.85;;;13.60;99.90;;;;;;5014823;28;20092;-72
2023/06/01 11:53:22;;;;;;;11.77;3.55;;;13.60;99.90;;;;;;5015969;28;20049;-70
2023/06/01 11:55:52;;;;;;;10.68;2.80;;;13.60;99.90;;;;;;5015777;28;20123;-72
2023/06/01 11:58:22;;;;;;;5.80;3.22;;;13.50;99.90;;;;;;5015628;28;20104;-70
2023/06/01 12:00:48;;;;;;;6.95;3.13;;;13.60;99.90;;;;;;5015616;28;20124;-71
2023/06/01 12:03:14;;;;;;;8.25;2.97;;;13.60;99.90;;;;;;5014541;28;20048;-70
2023/06/01 12:05:49;;;;;;;8.55;3.00;;;13.60;99.90;;;;;;5015700;28;20113;-70
2023/06/01 12:08:23;;;;;;;10.63;3.83;;;13.60;99.90;;;;;;5014170;28;20037;-70
2023/06/01 12:10:50;;;;;;;6.75;2.83;;;13.50;99.90;;;;;;5014183;28;20496;-69
2023/06/01 12:13:20;;;;;;;10.65;2.85;;;13.60;99.90;;;;;;5014112;28;20547;-70
2023/06/01 12:15:46;;;;;;;8.70;3.10;;;13.60;99.90;;;;;;5015285;28;20042;-71
2023/06/01 12:18:12;;;;;;;8.43;3.28;;;13.50;99.90;;;;;;5015391;28;20092;-71
2023/06/01 12:20:43;;;;;;;10.70;3.08;;;13.50;99.90;;;;;;5015263;28;20049;-72
2023/06/01 12:23:15;;;;;;;10.52;3.75;;;13.50;99.90;;;;;;5015124;28;20084;-71
2023/06/01 12:25:50;;;;;;;8.85;3.92;;;13.50;99.90;;;;;;5013485;28;20084;-71
2023/06/01 12:28:17;;;;;;;9.02;2.50;;;13.60;99.90;;;;;;5013398;28;20113;-71
2023/06/01 12:30:43;;;;;;;6.65;3.00;;;13.70;99.90;;;;;;5010868;28;20421;-72
2023/06/01 12:33:28;;;;;;;6.80;2.63;;;13.70;99.90;;;;;;5014405;28;20034;-72
2023/06/01 12:35:54;;;;;;;7.05;3.17;;;13.60;99.90;;;;;;5012315;28;20049;-74
2023/06/01 12:38:20;;;;;;;6.60;3.65;;;13.70;99.90;;;;;;5013610;28;20104;-73
2023/06/01 12:40:46;;;;;;;8.57;3.75;;;13.70;99.90;;;;;;4997423;28;20425;-73
2023/06/01 12:43:19;;;;;;;6.95;3.20;;;13.60;99.90;;;;;;4997348;28;20045;-73
2023/06/01 12:45:45;;;;;;;12.23;4.15;;;13.60;99.90;;;;;;5014891;28;20046;-72
2023/06/01 12:48:31;;;;;;;7.47;3.22;;;13.40;99.90;;;;;;5013394;28;20052;-72